createdAt,value
2023-05-19T00:00:18.108Z,236.58
2023-05-19T00:01:18.088Z,234.71
2023-05-19T00:02:18.115Z,236.93
2023-05-19T00:03:18.175Z,236.24
2023-05-19T00:04:18.077Z,234.55
2023-05-19T00:05:18.045Z,232.71
2023-05-19T00:06:18.202Z,234.21
2023-05-19T00:07:18.004Z,232.21
2023-05-19T00:08:18.005Z,230.74
2023-05-19T00:09:17.983Z,230.25
2023-05-19T00:10:17.989Z,230.25
2023-05-19T00:11:17.962Z,228.64
2023-05-19T00:12:17.943Z,229.60
2023-05-19T00:13:17.932Z,225.95
2023-05-19T00:14:17.926Z,221.81
2023-05-19T00:15:17.912Z,221.51
2023-05-19T00:16:17.939Z,220.62
2023-05-19T00:17:17.880Z,221.66
2023-05-19T00:18:17.875Z,219.28
2023-05-19T00:19:17.948Z,216.24
2023-05-19T00:20:17.867Z,220.62
2023-05-19T00:21:17.838Z,223.18
2023-05-19T00:22:17.806Z,224.71
2023-05-19T00:23:17.803Z,224.56
2023-05-19T00:24:17.801Z,225.33
2023-05-19T00:25:17.808Z,224.71
2023-05-19T00:26:17.759Z,225.80
2023-05-19T00:27:17.742Z,226.58
2023-05-19T00:28:17.741Z,225.95
2023-05-19T00:29:17.766Z,222.87
2023-05-19T00:30:17.717Z,217.53
2023-05-19T00:31:17.845Z,217.39
2023-05-19T00:32:17.806Z,216.52
2023-05-19T00:33:17.656Z,219.58
2023-05-19T00:34:17.658Z,220.62
2023-05-19T00:35:17.652Z,218.84
2023-05-19T00:36:17.639Z,219.43
2023-05-19T00:37:17.619Z,218.26
2023-05-19T00:38:17.600Z,217.97
2023-05-19T00:39:17.616Z,218.70
2023-05-19T00:40:17.583Z,218.55
2023-05-19T00:41:17.573Z,215.81
2023-05-19T00:42:17.543Z,213.83
2023-05-19T00:43:17.541Z,214.25
2023-05-19T00:44:17.520Z,211.21
2023-05-19T00:45:17.502Z,210.66
2023-05-19T00:46:17.526Z,210.39
2023-05-19T00:47:17.495Z,209.45
2023-05-19T00:48:17.469Z,211.21
2023-05-19T00:49:17.474Z,212.58
2023-05-19T00:50:17.439Z,212.44
2023-05-19T00:51:17.447Z,209.99
2023-05-19T00:52:17.425Z,209.58
2023-05-19T00:53:17.397Z,208.91
2023-05-19T00:54:17.408Z,206.67
2023-05-19T00:55:17.377Z,206.67
2023-05-19T00:56:17.388Z,208.38
2023-05-19T00:57:17.350Z,208.65
2023-05-19T00:58:17.339Z,208.65
2023-05-19T00:59:17.319Z,206.80
2023-05-19T01:00:17.303Z,206.02
2023-05-19T01:01:17.528Z,203.96
2023-05-19T01:02:17.300Z,201.94
2023-05-19T01:03:17.336Z,200.70
2023-05-19T01:04:17.255Z,200.83
2023-05-19T01:05:17.249Z,199.72
2023-05-19T01:06:17.222Z,202.32
2023-05-19T01:07:17.227Z,201.57
2023-05-19T01:08:17.219Z,200.83
2023-05-19T01:09:17.191Z,200.83
2023-05-19T01:10:17.175Z,198.63
2023-05-19T01:11:17.171Z,199.60
2023-05-19T01:12:17.168Z,195.07
2023-05-19T01:13:17.136Z,193.12
2023-05-19T01:14:17.142Z,193.23
2023-05-19T01:15:17.110Z,193.23
2023-05-19T01:16:17.144Z,190.53
2023-05-19T01:17:17.097Z,191.87
2023-05-19T01:18:17.086Z,189.20
2023-05-19T01:19:17.089Z,188.33
2023-05-19T01:20:17.112Z,186.29
2023-05-19T01:21:17.041Z,183.70
2023-05-19T01:22:17.021Z,184.31
2023-05-19T01:23:17.041Z,185.13
2023-05-19T01:24:16.992Z,185.13
2023-05-19T01:25:16.992Z,185.13
2023-05-19T01:26:16.986Z,183.70
2023-05-19T01:27:16.974Z,180.71
2023-05-19T01:28:16.961Z,182.49
2023-05-19T01:29:16.957Z,181.49
2023-05-19T01:30:16.917Z,182.09
2023-05-19T01:31:16.938Z,180.12
2023-05-19T01:32:16.940Z,180.90
2023-05-19T01:33:16.877Z,181.30
2023-05-19T01:34:16.882Z,183.09
2023-05-19T01:35:16.878Z,183.90
2023-05-19T01:36:16.838Z,180.31
2023-05-19T01:37:16.826Z,180.71
2023-05-19T01:38:16.829Z,180.31
2023-05-19T01:39:16.816Z,180.51
2023-05-19T01:40:16.789Z,176.49
2023-05-19T01:41:16.774Z,176.49
2023-05-19T01:42:16.788Z,173.90
2023-05-19T01:43:16.748Z,171.21
2023-05-19T01:44:16.761Z,170.69
2023-05-19T01:45:16.768Z,174.45
2023-05-19T01:46:16.771Z,178.38
2023-05-19T01:47:16.713Z,179.54
2023-05-19T01:48:16.779Z,177.81
2023-05-19T01:49:16.699Z,181.69
2023-05-19T01:50:16.660Z,180.51
2023-05-19T01:51:16.674Z,180.31
2023-05-19T01:52:16.633Z,180.71
2023-05-19T01:53:16.630Z,182.09
2023-05-19T01:54:16.619Z,182.09
2023-05-19T01:55:16.612Z,179.15
2023-05-19T01:56:16.611Z,180.51
2023-05-19T01:57:16.581Z,177.81
2023-05-19T01:58:16.570Z,172.28
2023-05-19T01:59:16.588Z,173.72
2023-05-19T02:00:16.865Z,170.51
2023-05-19T02:01:16.555Z,174.08
2023-05-19T02:02:16.508Z,173.90
2023-05-19T02:03:16.522Z,173.90
2023-05-19T02:04:16.527Z,171.21
2023-05-19T02:05:16.477Z,171.04
2023-05-19T02:06:16.479Z,170.51
2023-05-19T02:07:16.434Z,171.57
2023-05-19T02:08:16.433Z,171.74
2023-05-19T02:09:16.440Z,170.51
2023-05-19T02:10:16.406Z,171.92
2023-05-19T02:11:16.405Z,170.69
2023-05-19T02:12:16.408Z,168.78
2023-05-19T02:13:16.378Z,166.92
2023-05-19T02:14:16.360Z,166.58
2023-05-19T02:15:16.363Z,165.75
2023-05-19T02:16:16.380Z,163.79
2023-05-19T02:17:16.319Z,161.72
2023-05-19T02:18:16.324Z,157.43
2023-05-19T02:19:16.310Z,154.94
2023-05-19T02:20:16.282Z,153.65
2023-05-19T02:21:16.299Z,153.79
2023-05-19T02:22:16.258Z,155.66
2023-05-19T02:23:16.267Z,157.58
2023-05-19T02:24:16.259Z,158.63
2023-05-19T02:25:16.222Z,156.10
2023-05-19T02:26:16.229Z,155.96
2023-05-19T02:27:16.226Z,156.10
2023-05-19T02:28:16.179Z,153.51
2023-05-19T02:29:16.176Z,151.55
2023-05-19T02:30:16.174Z,150.86
2023-05-19T02:31:16.149Z,151.41
2023-05-19T02:32:16.186Z,149.10
2023-05-19T02:33:16.124Z,148.97
2023-05-19T02:34:16.123Z,148.44
2023-05-19T02:35:16.110Z,148.17
2023-05-19T02:36:16.095Z,149.51
2023-05-19T02:37:16.111Z,149.24
2023-05-19T02:38:16.072Z,148.70
2023-05-19T02:39:16.060Z,148.04
2023-05-19T02:40:16.036Z,150.73
2023-05-19T02:41:16.020Z,149.91
2023-05-19T02:42:16.031Z,148.84
2023-05-19T02:43:16.003Z,151.55
2023-05-19T02:44:15.988Z,154.08
2023-05-19T02:45:15.992Z,150.45
2023-05-19T02:46:16.017Z,148.44
2023-05-19T02:47:15.965Z,146.73
2023-05-19T02:48:15.955Z,147.91
2023-05-19T02:49:15.942Z,147.38
2023-05-19T02:50:15.922Z,147.38
2023-05-19T02:51:15.924Z,146.48
2023-05-19T02:52:15.901Z,147.38
2023-05-19T02:53:15.875Z,144.06
2023-05-19T02:54:15.879Z,143.57
2023-05-19T02:55:15.867Z,144.31
2023-05-19T02:56:15.833Z,143.81
2023-05-19T02:57:15.827Z,143.81
2023-05-19T02:58:15.812Z,146.09
2023-05-19T02:59:15.829Z,147.25
2023-05-19T03:00:15.820Z,148.70
2023-05-19T03:01:15.781Z,147.65
2023-05-19T03:02:15.825Z,144.94
2023-05-19T03:03:15.821Z,145.71
2023-05-19T03:04:15.731Z,149.64
2023-05-19T03:05:15.765Z,147.78
2023-05-19T03:06:15.718Z,145.83
2023-05-19T03:07:15.712Z,147.78
2023-05-19T03:08:15.689Z,148.97
2023-05-19T03:09:15.672Z,148.44
2023-05-19T03:10:15.653Z,149.91
2023-05-19T03:11:15.651Z,148.84
2023-05-19T03:12:15.633Z,145.20
2023-05-19T03:13:15.617Z,143.44
2023-05-19T03:14:15.604Z,142.70
2023-05-19T03:15:15.595Z,140.29
2023-05-19T03:16:15.636Z,140.18
2023-05-19T03:17:15.617Z,138.66
2023-05-19T03:18:15.570Z,137.17
2023-05-19T03:19:15.577Z,134.51
2023-05-19T03:20:15.554Z,131.11
2023-05-19T03:21:15.523Z,127.79
2023-05-19T03:22:15.524Z,127.00
2023-05-19T03:23:15.488Z,128.38
2023-05-19T03:24:15.474Z,127.00
2023-05-19T03:25:15.478Z,125.85
2023-05-19T03:26:15.469Z,124.91
2023-05-19T03:27:15.447Z,124.53
2023-05-19T03:28:15.429Z,123.15
2023-05-19T03:29:15.429Z,123.42
2023-05-19T03:30:15.397Z,126.91
2023-05-19T03:31:15.393Z,128.98
2023-05-19T03:32:15.470Z,129.18
2023-05-19T03:33:15.536Z,131.53
2023-05-19T03:34:15.347Z,131.63
2023-05-19T03:35:15.351Z,130.60
2023-05-19T03:36:15.362Z,130.19
2023-05-19T03:37:15.357Z,129.08
2023-05-19T03:38:15.330Z,128.78
2023-05-19T03:39:15.304Z,127.39
2023-05-19T03:40:15.275Z,128.18
2023-05-19T03:41:15.260Z,130.60
2023-05-19T03:42:15.260Z,129.08
2023-05-19T03:43:15.271Z,130.29
2023-05-19T03:44:15.242Z,129.78
2023-05-19T03:45:15.213Z,129.68
2023-05-19T03:46:15.263Z,130.90
2023-05-19T03:47:15.203Z,130.80
2023-05-19T03:48:15.205Z,130.70
2023-05-19T03:49:15.246Z,128.18
2023-05-19T03:50:15.154Z,127.20
2023-05-19T03:51:15.144Z,125.19
2023-05-19T03:52:15.169Z,125.28
2023-05-19T03:53:15.133Z,123.42
2023-05-19T03:54:15.105Z,124.91
2023-05-19T03:55:15.127Z,125.09
2023-05-19T03:56:15.122Z,124.35
2023-05-19T03:57:15.096Z,122.88
2023-05-19T04:20:54.490Z,61.74
2023-05-19T04:21:55.450Z,63.05
2023-05-19T04:22:55.274Z,66.48
2023-05-19T04:23:55.198Z,68.62
2023-05-19T04:24:55.182Z,70.42
2023-05-19T04:25:55.117Z,72.07
2023-05-19T04:26:55.117Z,72.64
2023-05-19T04:27:55.133Z,73.02
2023-05-19T04:28:55.130Z,73.86
2023-05-19T04:29:55.079Z,74.79
2023-05-19T04:30:55.116Z,75.82
2023-05-19T04:31:55.013Z,75.41
2023-05-19T04:32:55.122Z,75.61
2023-05-19T04:33:55.022Z,76.38
2023-05-19T04:34:55.022Z,77.66
2023-05-19T04:35:55.044Z,77.95
2023-05-19T04:36:55.016Z,78.39
2023-05-19T04:37:54.960Z,78.61
2023-05-19T04:38:55.032Z,78.69
2023-05-19T04:39:54.967Z,78.17
2023-05-19T04:40:54.910Z,79.21
2023-05-19T04:41:54.917Z,80.05
2023-05-19T04:42:55.668Z,82.52
2023-05-19T04:43:55.796Z,83.10
2023-05-19T04:44:55.208Z,83.85
2023-05-19T04:45:55.241Z,85.22
2023-05-19T04:46:55.639Z,85.66
2023-05-19T04:47:54.890Z,85.75
2023-05-19T04:48:54.862Z,85.05
2023-05-19T04:49:54.817Z,85.22
2023-05-19T04:50:54.792Z,85.93
2023-05-19T04:51:55.881Z,86.20
2023-05-19T04:52:54.785Z,86.38
2023-05-19T04:53:54.817Z,85.57
2023-05-19T04:54:54.757Z,84.53
2023-05-19T04:55:54.859Z,83.68
2023-05-19T04:56:54.709Z,82.68
2023-05-19T04:57:54.735Z,83.10
2023-05-19T04:58:54.826Z,83.01
2023-05-19T04:59:54.678Z,81.39
2023-05-19T05:00:54.711Z,81.15
2023-05-19T05:01:54.804Z,81.55
2023-05-19T05:02:55.335Z,82.85
2023-05-19T05:03:55.315Z,82.35
2023-05-19T05:07:21.914Z,59.28
2023-05-19T05:08:23.521Z,67.34
2023-05-19T05:09:23.339Z,72.01
2023-05-19T05:10:22.614Z,75.82
2023-05-19T05:11:22.657Z,78.17
2023-05-19T05:12:22.681Z,80.52
2023-05-19T05:13:22.634Z,80.29
2023-05-19T05:14:22.605Z,82.11
2023-05-19T05:15:22.585Z,83.60
2023-05-19T05:16:22.689Z,84.44
2023-05-19T05:17:44.996Z,85.93
2023-05-19T05:18:22.515Z,88.40
2023-05-19T05:19:22.746Z,89.64
2023-05-19T05:20:22.535Z,89.54
2023-05-19T05:21:22.487Z,91.41
2023-05-19T05:22:22.547Z,92.53
2023-05-19T05:35:22.977Z,56.61
2023-05-19T05:36:23.974Z,57.75
2023-05-19T05:37:23.815Z,60.18
2023-05-19T05:38:23.807Z,61.79
2023-05-19T05:39:23.755Z,65.13
2023-05-19T05:40:23.821Z,68.90
2023-05-19T05:41:23.755Z,72.32
2023-05-19T05:42:23.757Z,75.41
2023-05-19T05:43:23.710Z,76.94
2023-05-19T05:44:23.702Z,78.69
2023-05-19T05:45:23.765Z,79.21
2023-05-19T05:46:23.717Z,79.37
2023-05-19T05:47:23.750Z,81.23
2023-05-19T05:48:23.684Z,84.79
2023-05-19T05:49:23.643Z,87.56
2023-05-19T05:50:23.631Z,87.10
2023-05-19T05:51:23.660Z,86.74
2023-05-19T05:52:23.640Z,84.62
2023-05-19T05:53:23.586Z,85.14
2023-05-19T05:54:23.590Z,85.75
2023-05-19T05:55:23.555Z,84.27
2023-05-19T05:56:23.682Z,83.43
2023-05-19T05:57:23.573Z,84.36
2023-05-19T05:58:23.528Z,86.83
2023-05-19T05:59:23.600Z,90.02
2023-05-19T06:00:23.593Z,93.99
2023-05-19T06:01:23.533Z,95.99
2023-05-19T06:02:23.607Z,96.82
2023-05-19T06:03:23.517Z,96.43
2023-05-19T06:04:23.452Z,94.73
2023-05-19T06:05:23.476Z,95.16
2023-05-19T06:06:23.435Z,93.98
2023-05-19T06:07:23.420Z,94.68
2023-05-19T06:08:23.397Z,94.64
2023-05-19T06:09:23.456Z,91.11
2023-05-19T06:10:23.455Z,89.83
2023-05-19T06:11:23.403Z,90.51
2023-05-19T06:12:23.399Z,95.07
2023-05-19T06:13:23.339Z,95.49
2023-05-19T06:14:23.318Z,99.25
2023-05-19T06:15:23.303Z,100.21
2023-05-19T06:16:23.330Z,99.97
2023-05-19T06:17:23.292Z,101.62
2023-05-19T06:18:23.285Z,103.32
2023-05-19T06:19:23.285Z,103.32
2023-05-19T06:20:23.229Z,105.69
2023-05-19T06:21:23.240Z,106.84
2023-05-19T06:22:23.258Z,100.03
2023-05-19T06:23:23.221Z,96.38
2023-05-19T06:24:23.182Z,95.07
2023-05-19T06:25:23.173Z,93.26
2023-05-19T06:26:23.174Z,93.99
2023-05-19T06:27:23.165Z,90.51
2023-05-19T06:28:23.142Z,92.94
2023-05-19T06:29:23.138Z,94.85
2023-05-19T06:30:23.114Z,97.28
2023-05-19T06:31:23.169Z,100.33
2023-05-19T06:32:23.162Z,104.36
2023-05-19T06:33:23.182Z,108.31
2023-05-19T06:34:23.054Z,110.46
2023-05-19T06:35:23.048Z,112.10
2023-05-19T06:36:23.059Z,111.35
2023-05-19T06:37:23.019Z,103.20
2023-05-19T06:38:23.030Z,99.37
2023-05-19T06:39:23.007Z,97.74
2023-05-19T06:40:23.008Z,94.03
2023-05-19T06:41:23.001Z,94.46
2023-05-19T06:42:23.067Z,95.40
2023-05-19T06:43:22.948Z,95.62
2023-05-19T06:44:22.936Z,95.40
2023-05-19T06:45:22.913Z,95.95
2023-05-19T06:46:23.002Z,92.02
2023-05-19T06:47:22.983Z,93.05
2023-05-19T06:48:22.933Z,94.78
2023-05-19T06:49:22.869Z,98.08
2023-05-19T06:50:22.872Z,99.61
2023-05-19T06:51:22.888Z,102.81
2023-05-19T06:52:22.822Z,104.69
2023-05-19T06:53:22.844Z,107.67
2023-05-19T06:54:22.800Z,113.02
2023-05-19T06:55:22.817Z,109.66
2023-05-19T06:56:22.804Z,104.43
2023-05-19T06:57:22.763Z,99.79
2023-05-19T06:58:22.744Z,93.26
2023-05-19T06:59:22.729Z,93.36
2023-05-19T07:00:23.966Z,99.91
2023-05-19T07:01:22.833Z,107.33
2023-05-19T07:02:22.694Z,110.03
2023-05-19T07:03:22.803Z,116.10
2023-05-19T07:04:22.669Z,113.33
2023-05-19T07:05:22.657Z,114.10
2023-05-19T07:06:22.655Z,111.58
2023-05-19T07:07:22.662Z,110.68
2023-05-19T07:08:22.598Z,105.49
2023-05-19T07:09:22.626Z,105.89
2023-05-19T07:10:22.577Z,104.17
2023-05-19T07:11:22.574Z,104.10
2023-05-19T07:12:22.561Z,98.26
2023-05-19T07:13:23.551Z,96.06
2023-05-19T07:14:22.569Z,94.64
2023-05-19T07:15:22.542Z,89.54
2023-05-19T07:16:22.626Z,94.74
2023-05-19T07:17:22.798Z,95.33
2023-05-19T07:18:22.469Z,99.73
2023-05-19T07:19:22.731Z,104.23
2023-05-19T07:20:22.491Z,98.43
2023-05-19T07:21:22.468Z,97.56
2023-05-19T07:22:22.442Z,94.51
2023-05-19T07:23:22.421Z,97.45
2023-05-19T07:24:22.391Z,110.17
2023-05-19T07:25:22.410Z,111.06
2023-05-19T07:26:22.487Z,116.18
2023-05-19T07:27:22.493Z,116.18
2023-05-19T07:28:22.349Z,120.47
2023-05-19T07:29:22.384Z,125.66
2023-05-19T07:30:22.322Z,122.78
2023-05-19T07:31:22.366Z,129.98
2023-05-19T07:32:22.413Z,133.43
2023-05-19T07:33:22.452Z,126.04
2023-05-19T07:34:22.264Z,129.28
2023-05-19T07:35:22.279Z,124.91
2023-05-19T07:36:22.276Z,124.62
2023-05-19T07:37:22.290Z,134.18
2023-05-19T07:38:22.248Z,135.94
2023-05-19T07:39:22.268Z,143.44
2023-05-19T07:40:22.195Z,145.83
2023-05-19T07:41:22.289Z,152.24
2023-05-19T07:42:22.198Z,156.84
2023-05-19T07:43:22.171Z,156.54
2023-05-19T07:44:22.151Z,150.73
2023-05-19T07:45:22.131Z,144.44
2023-05-19T07:46:22.245Z,139.01
2023-05-19T07:47:22.119Z,138.66
2023-05-19T07:48:22.143Z,140.06
2023-05-19T07:49:22.090Z,142.70
2023-05-19T07:50:22.064Z,140.65
2023-05-19T07:51:22.060Z,137.97
2023-05-19T07:52:22.129Z,138.08
2023-05-19T07:53:22.040Z,135.94
2023-05-19T07:54:22.049Z,134.94
2023-05-19T07:55:22.006Z,136.61
2023-05-19T07:56:21.997Z,140.77
2023-05-19T07:57:21.978Z,137.74
2023-05-19T07:58:21.980Z,136.94
2023-05-19T07:59:21.977Z,140.41
2023-05-19T08:00:21.957Z,139.47
2023-05-19T08:01:21.915Z,143.32
2023-05-19T08:02:21.953Z,147.78
2023-05-19T08:03:22.028Z,148.70
2023-05-19T08:04:21.932Z,138.31
2023-05-19T08:05:21.873Z,141.37
2023-05-19T08:06:21.883Z,138.54
2023-05-19T08:07:21.941Z,142.58
2023-05-19T08:08:21.838Z,143.57
2023-05-19T08:09:21.847Z,146.73
2023-05-19T08:10:21.798Z,149.91
2023-05-19T08:11:21.808Z,156.54
2023-05-19T08:12:21.786Z,164.93
2023-05-19T08:13:21.794Z,167.93
2023-05-19T08:14:22.098Z,163.47
2023-05-19T08:15:21.739Z,162.20
2023-05-19T08:16:21.861Z,157.58
2023-05-19T08:17:21.726Z,145.58
2023-05-19T08:18:21.710Z,146.99
2023-05-19T08:19:21.953Z,155.23
2023-05-19T08:20:21.700Z,156.10
2023-05-19T08:21:21.665Z,158.03
2023-05-19T08:22:21.667Z,165.09
2023-05-19T08:23:21.643Z,171.92
2023-05-19T08:24:21.649Z,173.72
2023-05-19T08:25:21.634Z,174.27
2023-05-19T08:26:21.607Z,172.28
2023-05-19T08:27:21.579Z,177.05
2023-05-19T08:28:21.583Z,176.86
2023-05-19T08:29:21.567Z,177.81
2023-05-19T08:30:21.568Z,179.92
2023-05-19T08:31:21.633Z,178.57
2023-05-19T08:32:21.618Z,178.38
2023-05-19T08:33:21.523Z,172.10
2023-05-19T08:34:21.528Z,175.74
2023-05-19T08:35:21.506Z,168.44
2023-05-19T08:36:21.492Z,164.12
2023-05-19T08:37:21.466Z,166.92
2023-05-19T08:38:21.443Z,170.34
2023-05-19T08:39:21.424Z,175.00
2023-05-19T08:40:21.448Z,175.93
2023-05-19T08:41:21.404Z,175.18
2023-05-19T08:42:21.397Z,174.45
2023-05-19T08:43:21.376Z,171.92
2023-05-19T08:44:21.393Z,171.39
2023-05-19T08:45:21.355Z,168.61
2023-05-19T08:46:21.402Z,165.59
2023-05-19T08:47:21.333Z,163.79
2023-05-19T08:48:21.323Z,162.04
2023-05-19T08:49:21.877Z,162.83
2023-05-19T08:50:21.312Z,162.83
2023-05-19T08:51:21.273Z,161.25
2023-05-19T08:52:21.255Z,162.04
2023-05-19T08:53:32.329Z,161.88
2023-05-19T08:54:21.247Z,163.15
2023-05-19T08:55:21.250Z,165.09
2023-05-19T08:56:21.217Z,167.09
2023-05-19T08:57:21.201Z,169.12
2023-05-19T08:58:21.193Z,171.04
2023-05-19T08:59:21.272Z,168.78
2023-05-19T09:00:21.192Z,163.79
2023-05-19T09:01:21.304Z,155.81
2023-05-19T09:02:22.043Z,150.18
2023-05-19T09:03:23.960Z,145.96
2023-05-19T09:04:21.248Z,145.07
2023-05-19T09:05:21.163Z,147.12
2023-05-19T09:06:21.077Z,151.69
2023-05-19T09:07:21.088Z,154.08
2023-05-19T09:08:21.097Z,155.08
2023-05-19T09:09:21.033Z,148.70
2023-05-19T09:10:21.125Z,148.84
2023-05-19T09:11:21.036Z,150.18
2023-05-19T09:12:20.998Z,151.00
2023-05-19T09:13:20.992Z,152.10
2023-05-19T09:14:21.010Z,156.10
2023-05-19T09:15:20.993Z,157.28
2023-05-19T09:16:20.975Z,159.55
2023-05-19T09:17:20.975Z,154.36
2023-05-19T09:18:20.939Z,147.78
2023-05-19T09:19:21.010Z,143.44
2023-05-19T09:20:20.897Z,143.20
2023-05-19T09:21:20.893Z,141.61
2023-05-19T09:22:20.877Z,143.57
2023-05-19T09:23:20.865Z,144.82
2023-05-19T09:24:20.910Z,145.96
2023-05-19T09:25:20.828Z,142.95
2023-05-19T09:26:20.836Z,138.54
2023-05-19T09:27:20.805Z,143.57
2023-05-19T09:28:20.813Z,151.83
2023-05-19T09:29:20.779Z,159.09
2023-05-19T09:30:20.757Z,162.99
2023-05-19T09:31:20.776Z,165.92
2023-05-19T09:32:20.888Z,165.42
2023-05-19T09:33:20.872Z,163.79
2023-05-19T09:34:20.701Z,159.09
2023-05-19T09:35:20.686Z,161.09
2023-05-19T09:36:20.709Z,167.25
2023-05-19T09:37:20.660Z,172.64
2023-05-19T09:38:20.681Z,173.90
2023-05-19T09:39:20.670Z,180.90
2023-05-19T09:40:20.644Z,183.30
2023-05-19T09:41:20.627Z,185.13
2023-05-19T09:42:20.601Z,183.50
2023-05-19T09:43:20.604Z,183.09
2023-05-19T09:44:20.599Z,180.12
2023-05-19T09:45:20.557Z,178.76
2023-05-19T09:46:20.597Z,161.25
2023-05-19T09:47:20.562Z,160.47
2023-05-19T09:48:20.521Z,160.78
2023-05-19T09:49:20.511Z,168.95
2023-05-19T09:50:20.544Z,175.18
2023-05-19T09:51:20.497Z,181.89
2023-05-19T09:52:20.478Z,184.93
2023-05-19T09:53:20.466Z,185.13
2023-05-19T09:54:20.450Z,188.55
2023-05-19T09:55:20.436Z,191.87
2023-05-19T09:56:20.418Z,191.64
2023-05-19T09:57:20.438Z,197.91
2023-05-19T09:58:21.465Z,200.58
2023-05-19T09:59:20.417Z,200.21
2023-05-19T10:00:20.377Z,199.60
2023-05-19T10:01:20.353Z,200.21
2023-05-19T10:02:20.346Z,203.07
2023-05-19T10:03:20.320Z,202.95
2023-05-19T10:04:20.321Z,202.57
2023-05-19T10:05:20.607Z,195.31
2023-05-19T10:06:20.286Z,199.11
2023-05-19T10:07:20.282Z,199.48
2023-05-19T10:08:20.284Z,202.70
2023-05-19T10:09:20.260Z,201.94
2023-05-19T10:10:20.248Z,199.36
2023-05-19T10:11:20.284Z,200.58
2023-05-19T10:12:20.231Z,196.13
2023-05-19T10:13:20.266Z,185.66
2023-05-19T10:14:20.180Z,187.57
2023-05-19T10:15:22.758Z,185.13
2023-05-19T10:16:20.307Z,184.71
2023-05-19T10:17:20.173Z,187.36
2023-05-19T10:18:20.204Z,188.66
2023-05-19T10:19:20.137Z,190.86
2023-05-19T10:20:20.177Z,192.21
2023-05-19T10:21:20.162Z,191.31
2023-05-19T10:22:20.180Z,189.20
2023-05-19T10:23:20.160Z,185.13
2023-05-19T10:24:20.103Z,172.64
2023-05-19T10:25:20.096Z,166.58
2023-05-19T10:26:20.095Z,170.16
2023-05-19T10:27:20.634Z,167.25
2023-05-19T10:28:20.028Z,176.30
2023-05-19T10:29:19.963Z,186.17
2023-05-19T10:30:19.951Z,181.49
2023-05-19T10:31:19.941Z,160.78
2023-05-19T10:32:20.014Z,140.06
2023-05-19T10:33:20.034Z,148.97
2023-05-19T10:34:19.910Z,146.09
2023-05-19T10:35:19.890Z,149.37
2023-05-19T10:36:19.883Z,156.25
2023-05-19T10:37:19.856Z,165.09
2023-05-19T10:38:19.894Z,178.00
2023-05-19T10:39:19.871Z,175.18
2023-05-19T10:40:19.828Z,166.92
2023-05-19T10:41:19.819Z,168.95
2023-05-19T10:42:19.863Z,160.01
2023-05-19T10:43:19.790Z,155.66
2023-05-19T10:44:19.794Z,140.77
2023-05-19T10:45:19.737Z,127.00
2023-05-19T10:46:19.861Z,127.79
2023-05-19T10:47:19.805Z,138.20
2023-05-19T10:48:19.770Z,148.17
2023-05-19T10:49:19.723Z,157.43
2023-05-19T10:50:19.705Z,159.85
2023-05-19T10:51:19.680Z,161.09
2023-05-19T10:52:19.731Z,157.28
2023-05-19T10:53:19.712Z,153.65
2023-05-19T10:54:19.691Z,161.56
2023-05-19T10:55:19.704Z,169.99
2023-05-19T10:56:19.625Z,174.08
2023-05-19T10:57:19.657Z,178.57
2023-05-19T10:58:19.628Z,178.00
2023-05-19T10:59:19.585Z,178.57
2023-05-19T11:00:19.562Z,171.57
2023-05-19T11:01:19.676Z,169.64
2023-05-19T11:02:19.684Z,164.77
2023-05-19T11:03:19.634Z,149.51
2023-05-19T11:04:19.629Z,142.46
2023-05-19T11:05:19.546Z,142.70
2023-05-19T11:06:19.554Z,146.22
2023-05-19T11:07:19.572Z,152.10
2023-05-19T11:08:19.494Z,155.81
2023-05-19T11:09:22.613Z,157.28
2023-05-19T11:10:19.456Z,144.82
2023-05-19T11:11:19.447Z,143.44
2023-05-19T11:12:19.613Z,136.83
2023-05-19T11:13:19.467Z,145.32
2023-05-19T11:14:19.477Z,150.86
2023-05-19T11:15:19.386Z,150.59
2023-05-19T11:16:19.467Z,142.95
2023-05-19T11:17:19.358Z,140.77
2023-05-19T11:18:19.369Z,147.91
2023-05-19T11:19:19.409Z,153.23
2023-05-19T11:20:19.316Z,156.69
2023-05-19T11:21:19.310Z,159.24
2023-05-19T11:22:19.310Z,157.88
2023-05-19T11:23:19.298Z,161.25
2023-05-19T11:24:19.256Z,165.42
2023-05-19T11:25:19.248Z,160.63
2023-05-19T11:26:19.232Z,148.17
2023-05-19T11:27:19.220Z,145.83
2023-05-19T11:28:19.522Z,149.91
2023-05-19T11:29:19.198Z,155.08
2023-05-19T11:30:19.220Z,158.18
2023-05-19T11:31:19.170Z,162.99
2023-05-19T11:32:19.202Z,168.61
2023-05-19T11:33:19.223Z,167.42
2023-05-19T11:34:19.131Z,169.64
2023-05-19T11:35:19.172Z,172.82
2023-05-19T11:36:19.155Z,176.86
2023-05-19T11:37:19.099Z,173.36
2023-05-19T11:38:19.128Z,169.82
2023-05-19T11:39:19.077Z,166.92
2023-05-19T11:40:19.080Z,162.04
2023-05-19T11:41:20.755Z,157.88
2023-05-19T11:42:19.017Z,161.72
2023-05-19T11:43:19.019Z,162.51
2023-05-19T11:44:19.016Z,164.77
2023-05-19T11:45:18.974Z,165.92
2023-05-19T11:46:19.057Z,163.63
2023-05-19T11:47:19.041Z,164.77
2023-05-19T11:48:18.988Z,163.63
2023-05-19T11:49:18.945Z,162.83
2023-05-19T11:50:18.955Z,166.75
2023-05-19T11:51:18.935Z,168.27
2023-05-19T11:52:18.913Z,168.44
2023-05-19T11:53:18.892Z,165.09
2023-05-19T11:54:18.885Z,163.63
2023-05-19T11:55:18.888Z,163.15
2023-05-19T11:56:18.844Z,161.25
2023-05-19T11:57:18.812Z,163.31
2023-05-19T11:58:18.808Z,165.59
2023-05-19T11:59:18.802Z,163.47
2023-05-19T12:00:18.797Z,156.99
2023-05-19T12:01:18.790Z,155.08
2023-05-19T12:02:18.823Z,157.88
2023-05-19T12:03:19.649Z,159.85
2023-05-19T12:04:18.738Z,154.79
2023-05-19T12:05:18.850Z,148.44
2023-05-19T12:06:18.786Z,143.32
2023-05-19T12:07:18.753Z,139.82
2023-05-19T12:08:18.742Z,146.22
2023-05-19T12:09:18.687Z,153.51
2023-05-19T12:10:18.643Z,157.88
2023-05-19T12:11:19.976Z,158.79
2023-05-19T12:12:18.645Z,159.40
2023-05-19T12:13:18.640Z,163.79
2023-05-19T12:14:18.669Z,165.09
2023-05-19T12:15:18.603Z,166.42
2023-05-19T12:16:18.624Z,170.86
2023-05-19T12:17:18.571Z,172.10
2023-05-19T12:18:18.537Z,172.28
2023-05-19T12:19:18.625Z,168.78
2023-05-19T12:20:18.503Z,167.76
2023-05-19T12:21:18.578Z,164.44
2023-05-19T12:22:18.537Z,157.43
2023-05-19T12:23:18.542Z,160.01
2023-05-19T12:24:18.465Z,163.15
2023-05-19T12:25:18.451Z,160.78
2023-05-19T12:26:18.436Z,159.55
2023-05-19T12:27:18.460Z,158.94
2023-05-19T12:28:18.510Z,156.99
2023-05-19T12:29:18.437Z,150.45
2023-05-19T12:30:18.436Z,144.69
2023-05-19T12:31:18.403Z,143.07
2023-05-19T12:32:18.356Z,144.69
2023-05-19T12:33:18.346Z,143.57
2023-05-19T12:34:18.410Z,141.85
2023-05-19T12:35:18.348Z,137.51
2023-05-19T12:36:18.318Z,132.89
2023-05-19T12:37:18.291Z,128.88
2023-05-19T12:38:18.275Z,125.09
2023-05-19T12:39:19.513Z,119.43
2023-05-19T12:40:18.282Z,116.91
2023-05-19T12:41:18.254Z,111.50
2023-05-19T12:42:18.288Z,113.48
2023-05-19T12:43:18.230Z,115.45
2023-05-19T12:44:18.201Z,107.88
2023-05-19T12:45:18.209Z,107.95
2023-05-19T12:46:18.251Z,102.75
2023-05-19T12:47:18.179Z,104.89
2023-05-19T12:48:18.217Z,102.94
2023-05-19T12:49:18.156Z,105.42
2023-05-19T12:50:18.134Z,108.09
2023-05-19T12:51:18.118Z,101.00
2023-05-19T12:52:18.113Z,101.50
2023-05-19T12:53:18.087Z,100.94
2023-05-19T12:54:18.124Z,100.88
2023-05-19T12:55:18.088Z,102.94
2023-05-19T12:56:18.036Z,110.61
2023-05-19T12:57:18.093Z,113.79
2023-05-19T12:58:18.017Z,117.41
2023-05-19T12:59:26.912Z,118.67
2023-05-19T13:00:18.025Z,118.41
2023-05-19T13:01:18.121Z,123.79
2023-05-19T13:02:17.990Z,130.80
2023-05-19T13:03:18.088Z,135.16
2023-05-19T13:04:18.077Z,136.38
2023-05-19T13:05:17.942Z,136.49
2023-05-19T13:06:17.928Z,137.06
2023-05-19T13:07:17.909Z,140.53
2023-05-19T13:08:17.889Z,145.58
2023-05-19T13:09:17.868Z,149.51